createdAt,value
2018-08-09T00:01:42.684Z,19.90
2018-08-09T00:04:18.292Z,19.80
2018-08-09T00:06:53.579Z,19.80
2018-08-09T00:09:29.185Z,19.80
2018-08-09T00:12:04.329Z,19.80
2018-08-09T00:14:39.764Z,19.80
2018-08-09T00:17:15.185Z,19.80
2018-08-09T00:19:51.156Z,19.70
2018-08-09T00:22:26.478Z,19.70
2018-08-09T00:25:01.928Z,19.70
2018-08-09T00:27:37.508Z,19.60
2018-08-09T00:30:13.266Z,19.60
2018-08-09T00:32:48.642Z,19.60
2018-08-09T00:35:24.079Z,19.60
2018-08-09T00:37:59.371Z,19.50
2018-08-09T00:40:34.946Z,19.50
2018-08-09T00:43:10.457Z,19.60
2018-08-09T00:45:45.933Z,19.60
2018-08-09T00:48:21.193Z,19.60
2018-08-09T00:50:56.969Z,19.50
2018-08-09T00:53:32.241Z,19.50
2018-08-09T00:56:07.882Z,19.40
2018-08-09T00:58:43.240Z,19.40
2018-08-09T01:01:18.905Z,19.40
2018-08-09T01:03:54.537Z,19.40
2018-08-09T01:06:30.105Z,19.40
2018-08-09T01:09:09.043Z,19.50
2018-08-09T01:11:44.898Z,19.40
2018-08-09T01:14:20.273Z,19.30
2018-08-09T01:16:55.872Z,19.30
2018-08-09T01:19:31.110Z,19.30
2018-08-09T01:22:07.069Z,19.40
2018-08-09T01:24:43.061Z,19.40
2018-08-09T01:27:18.800Z,19.40
2018-08-09T01:29:54.328Z,19.30
2018-08-09T01:32:29.876Z,19.30
2018-08-09T01:35:05.069Z,19.30
2018-08-09T01:37:40.515Z,19.30
2018-08-09T01:40:15.837Z,19.20
2018-08-09T01:43:08.553Z,19.20
2018-08-09T01:45:43.957Z,19.20
2018-08-09T01:48:19.627Z,19.20
2018-08-09T01:50:54.980Z,19.10
2018-08-09T01:53:30.745Z,19.20
2018-08-09T01:56:06.218Z,19.20
2018-08-09T01:58:41.737Z,19.20
2018-08-09T02:01:17.063Z,19.20
2018-08-09T02:03:52.639Z,19.10
2018-08-09T02:06:28.312Z,19.20
2018-08-09T02:09:09.049Z,19.10
2018-08-09T02:11:44.424Z,19.10
2018-08-09T02:14:19.944Z,19.10
2018-08-09T02:16:55.472Z,19.10
2018-08-09T02:19:31.244Z,19.10
2018-08-09T02:22:06.592Z,19.10
2018-08-09T02:24:42.544Z,19.10
2018-08-09T02:27:17.961Z,19.10
2018-08-09T02:29:53.631Z,19.10
2018-08-09T02:32:28.811Z,19.10
2018-08-09T02:35:04.628Z,19.00
2018-08-09T02:37:40.013Z,19.10
2018-08-09T02:40:15.524Z,19.10
2018-08-09T02:42:50.990Z,19.00
2018-08-09T02:45:26.516Z,19.10
2018-08-09T02:48:02.043Z,18.90
2018-08-09T02:50:37.730Z,18.90
2018-08-09T02:53:13.176Z,19.00
2018-08-09T02:55:48.704Z,19.00
2018-08-09T02:58:23.957Z,18.90
2018-08-09T03:00:59.479Z,18.80
2018-08-09T03:03:34.748Z,18.80
2018-08-09T03:06:10.276Z,18.80
2018-08-09T03:08:45.641Z,18.80
2018-08-09T03:11:21.172Z,18.90
2018-08-09T03:13:56.453Z,18.90
2018-08-09T03:16:32.476Z,18.90
2018-08-09T03:19:07.835Z,18.90
2018-08-09T03:21:43.364Z,18.80
2018-08-09T03:24:19.127Z,18.90
2018-08-09T03:26:54.452Z,18.90
2018-08-09T03:29:29.996Z,18.80
2018-08-09T03:32:05.865Z,18.70
2018-08-09T03:34:41.244Z,18.80
2018-08-09T03:37:16.960Z,18.70
2018-08-09T03:39:52.156Z,18.80
2018-08-09T03:42:27.749Z,18.80
2018-08-09T03:45:03.341Z,18.80
2018-08-09T03:47:38.949Z,18.80
2018-08-09T03:50:14.368Z,18.80
2018-08-09T03:52:50.064Z,18.70
2018-08-09T03:55:26.229Z,18.70
2018-08-09T03:58:01.852Z,18.80
2018-08-09T04:00:37.427Z,18.80
2018-08-09T04:03:12.953Z,18.70
2018-08-09T04:05:48.516Z,18.70
2018-08-09T04:08:24.145Z,18.70
2018-08-09T04:10:59.781Z,18.80
2018-08-09T04:13:35.498Z,18.90
2018-08-09T04:16:10.898Z,18.90
2018-08-09T04:18:46.853Z,18.90
2018-08-09T04:21:22.292Z,19.00
2018-08-09T04:23:57.854Z,19.10
2018-08-09T04:26:33.141Z,19.10
2018-08-09T04:29:08.737Z,19.20
2018-08-09T04:31:44.465Z,19.30
2018-08-09T04:34:21.695Z,19.40
2018-08-09T04:36:56.996Z,19.50
2018-08-09T04:39:32.789Z,19.60
2018-08-09T04:42:08.281Z,19.70
2018-08-09T04:44:44.384Z,19.70
2018-08-09T04:47:19.749Z,19.90
2018-08-09T04:49:55.968Z,20.00
2018-08-09T04:52:31.465Z,20.00
2018-08-09T04:55:07.080Z,19.90
2018-08-09T04:57:42.525Z,20.00
2018-08-09T05:00:18.066Z,20.00
2018-08-09T05:02:53.603Z,20.10
2018-08-09T05:05:29.061Z,20.20
2018-08-09T05:08:04.994Z,20.10
2018-08-09T05:10:40.920Z,20.20
2018-08-09T05:13:16.250Z,20.40
2018-08-09T05:15:52.014Z,20.50
2018-08-09T05:18:27.928Z,20.60
2018-08-09T05:21:03.778Z,20.70
2018-08-09T05:23:39.265Z,21.20
2018-08-09T05:26:14.976Z,22.50
2018-08-09T05:28:50.597Z,23.40
2018-08-09T05:31:27.777Z,24.30
2018-08-09T05:34:03.253Z,25.10
2018-08-09T05:36:38.949Z,25.40
2018-08-09T05:39:14.305Z,25.80
2018-08-09T05:41:49.792Z,25.90
2018-08-09T05:44:25.232Z,26.10
2018-08-09T05:47:01.404Z,26.40
2018-08-09T05:49:36.818Z,26.20
2018-08-09T05:52:12.805Z,26.00
2018-08-09T05:54:48.029Z,26.20
2018-08-09T05:57:23.657Z,26.70
2018-08-09T05:59:59.017Z,27.10
2018-08-09T06:02:34.704Z,27.20
2018-08-09T06:05:10.058Z,27.00
2018-08-09T06:07:45.853Z,26.60
2018-08-09T06:10:21.298Z,26.60
2018-08-09T06:12:56.888Z,26.90
2018-08-09T06:15:32.298Z,27.60
2018-08-09T06:18:07.874Z,27.70
2018-08-09T06:20:44.021Z,27.90
2018-08-09T06:23:19.590Z,27.80
2018-08-09T06:25:55.684Z,27.90
2018-08-09T06:28:31.441Z,27.90
2018-08-09T06:31:06.872Z,28.10
2018-08-09T06:33:42.469Z,27.90
2018-08-09T06:36:17.816Z,27.70
2018-08-09T06:38:53.689Z,27.90
2018-08-09T06:41:29.088Z,27.80
2018-08-09T06:44:05.240Z,28.00
2018-08-09T06:46:40.543Z,28.00
2018-08-09T06:49:16.308Z,28.60
2018-08-09T06:51:51.696Z,28.70
2018-08-09T06:54:27.510Z,28.20
2018-08-09T06:57:02.855Z,27.70
2018-08-09T06:59:38.375Z,27.50
2018-08-09T07:02:13.846Z,26.70
2018-08-09T07:04:49.578Z,25.80
2018-08-09T07:07:25.235Z,25.30
2018-08-09T07:10:00.872Z,25.10
2018-08-09T07:12:36.213Z,25.00
2018-08-09T07:15:13.715Z,25.10
2018-08-09T07:17:48.981Z,25.70
2018-08-09T07:20:24.510Z,26.00
2018-08-09T07:23:00.212Z,25.80
2018-08-09T07:25:35.792Z,26.00
2018-08-09T07:28:11.313Z,26.60
2018-08-09T07:30:47.096Z,26.60
2018-08-09T07:33:22.266Z,26.30
2018-08-09T07:35:57.698Z,26.70
2018-08-09T07:38:33.465Z,27.70
2018-08-09T07:41:09.326Z,27.30
2018-08-09T07:43:44.740Z,27.40
2018-08-09T07:46:20.216Z,27.60
2018-08-09T07:48:55.561Z,27.00
2018-08-09T07:51:31.277Z,26.30
2018-08-09T07:54:06.704Z,26.10
2018-08-09T07:56:42.222Z,25.80
2018-08-09T07:59:17.710Z,26.10
2018-08-09T08:01:53.364Z,26.40
2018-08-09T08:04:28.858Z,26.50
2018-08-09T08:07:04.765Z,26.20
2018-08-09T08:09:40.225Z,25.80
2018-08-09T08:12:15.758Z,25.00
2018-08-09T08:14:51.233Z,25.10
2018-08-09T08:17:26.866Z,25.00
2018-08-09T08:20:02.281Z,24.70
2018-08-09T08:22:37.851Z,25.00
2018-08-09T08:25:13.158Z,24.70
2018-08-09T08:27:48.833Z,24.70
2018-08-09T08:30:24.280Z,24.60
2018-08-09T08:32:59.955Z,24.90
2018-08-09T08:35:35.213Z,25.00
2018-08-09T08:38:10.873Z,25.50
2018-08-09T08:40:46.180Z,25.50
2018-08-09T08:43:21.741Z,26.00
2018-08-09T08:45:57.160Z,26.30
2018-08-09T08:48:32.614Z,26.20
2018-08-09T08:51:07.971Z,26.40
2018-08-09T08:53:43.399Z,26.30
2018-08-09T08:56:18.646Z,26.50
2018-08-09T08:58:54.728Z,26.60
2018-08-09T09:01:30.505Z,26.40
2018-08-09T09:04:05.894Z,26.30
2018-08-09T09:06:41.280Z,26.40
2018-08-09T09:09:16.884Z,26.00
2018-08-09T09:11:52.709Z,26.40
2018-08-09T09:14:28.276Z,26.10
2018-08-09T09:17:03.827Z,26.20
2018-08-09T09:19:39.177Z,26.60
2018-08-09T09:22:14.677Z,27.00
2018-08-09T09:24:50.388Z,27.40
2018-08-09T09:27:25.872Z,27.30
2018-08-09T09:30:01.777Z,27.30
2018-08-09T09:32:37.179Z,27.80
2018-08-09T09:35:12.664Z,28.20
2018-08-09T09:37:48.120Z,28.40
2018-08-09T09:40:23.563Z,28.60
2018-08-09T09:42:59.057Z,28.70
2018-08-09T09:45:34.545Z,28.80
2018-08-09T09:48:09.996Z,28.80
2018-08-09T09:50:45.364Z,28.30
2018-08-09T09:53:20.660Z,28.60
2018-08-09T09:55:56.254Z,28.80
2018-08-09T09:58:31.673Z,28.60
2018-08-09T10:01:12.752Z,28.20
2018-08-09T10:03:48.033Z,28.40
2018-08-09T10:06:23.745Z,28.70
2018-08-09T10:08:58.952Z,28.80
2018-08-09T10:11:34.536Z,28.80
2018-08-09T10:14:09.990Z,28.60
2018-08-09T10:16:45.342Z,28.70
2018-08-09T10:19:20.472Z,28.70
2018-08-09T10:21:56.034Z,28.80
2018-08-09T10:24:31.329Z,28.70
2018-08-09T10:27:13.140Z,28.60
2018-08-09T10:29:48.749Z,28.50
2018-08-09T10:32:24.237Z,28.40
2018-08-09T10:34:59.436Z,28.30
2018-08-09T10:37:35.133Z,28.40
2018-08-09T10:40:10.457Z,28.90
2018-08-09T10:42:46.093Z,29.40
2018-08-09T10:45:21.464Z,28.80
2018-08-09T10:47:57.119Z,28.50
2018-08-09T10:50:32.725Z,28.50
2018-08-09T10:53:08.412Z,28.50
2018-08-09T10:55:43.783Z,28.40
2018-08-09T10:58:19.397Z,28.50
2018-08-09T11:00:57.720Z,28.80
2018-08-09T11:03:33.368Z,28.90
2018-08-09T11:06:08.945Z,28.80
2018-08-09T11:08:44.640Z,28.70
2018-08-09T11:11:19.962Z,29.00
2018-08-09T11:13:55.544Z,29.00
2018-08-09T11:16:30.830Z,28.80
2018-08-09T11:19:06.656Z,28.60
2018-08-09T11:21:42.045Z,28.40
2018-08-09T11:24:17.552Z,28.20
2018-08-09T11:26:53.036Z,28.00
2018-08-09T11:29:29.082Z,28.00
2018-08-09T11:32:04.589Z,27.80
2018-08-09T11:34:40.349Z,27.70
2018-08-09T11:37:15.780Z,27.50
2018-08-09T11:39:51.595Z,27.30
2018-08-09T11:42:27.007Z,27.40
2018-08-09T11:45:02.445Z,27.40
2018-08-09T11:47:38.192Z,27.50
2018-08-09T11:50:13.590Z,27.70
2018-08-09T11:52:48.982Z,27.90
2018-08-09T11:55:24.185Z,28.10
2018-08-09T11:57:59.768Z,28.10
2018-08-09T12:00:35.393Z,28.10
2018-08-09T12:03:10.804Z,27.90
2018-08-09T12:05:46.120Z,27.90
2018-08-09T12:08:21.684Z,28.10
2018-08-09T12:10:57.058Z,28.30
2018-08-09T12:13:32.770Z,28.40
2018-08-09T12:16:08.119Z,28.60
2018-08-09T12:18:43.749Z,28.90
2018-08-09T12:21:19.068Z,28.70
2018-08-09T12:23:54.741Z,28.60
2018-08-09T12:26:30.140Z,29.00
2018-08-09T12:29:06.264Z,29.60
2018-08-09T12:31:41.543Z,30.10
2018-08-09T12:34:17.130Z,30.10
2018-08-09T12:36:52.482Z,29.90
2018-08-09T12:39:28.134Z,29.80
2018-08-09T12:42:03.443Z,29.80
2018-08-09T12:44:39.113Z,29.90
2018-08-09T12:47:14.376Z,30.00
2018-08-09T12:49:49.966Z,30.00
2018-08-09T12:52:25.284Z,29.90
2018-08-09T12:55:00.904Z,30.00
2018-08-09T12:57:36.189Z,30.20
2018-08-09T13:00:13.727Z,30.20
2018-08-09T13:02:49.138Z,30.10
2018-08-09T13:05:24.908Z,29.90
2018-08-09T13:08:00.122Z,29.80
2018-08-09T13:10:35.712Z,29.80
2018-08-09T13:13:11.068Z,29.90
2018-08-09T13:15:46.429Z,29.90
2018-08-09T13:18:21.767Z,30.20
2018-08-09T13:20:57.293Z,30.30
2018-08-09T13:23:32.817Z,30.40
2018-08-09T13:26:08.496Z,30.20
2018-08-09T13:28:43.697Z,30.30
2018-08-09T13:31:19.569Z,30.30
2018-08-09T13:33:54.954Z,30.20
2018-08-09T13:36:30.576Z,30.30
2018-08-09T13:39:11.320Z,30.30
2018-08-09T13:41:46.786Z,30.20
2018-08-09T13:44:22.064Z,30.30
2018-08-09T13:46:57.585Z,30.10
2018-08-09T13:49:33.829Z,30.00
2018-08-09T13:52:09.496Z,29.90
2018-08-09T13:54:44.916Z,30.00
2018-08-09T13:57:20.620Z,30.20
2018-08-09T13:59:56.098Z,30.40
2018-08-09T14:02:31.789Z,30.20
2018-08-09T14:05:07.917Z,30.20
2018-08-09T14:07:44.112Z,30.20
2018-08-09T14:10:19.500Z,30.50
2018-08-09T14:12:55.120Z,31.10
2018-08-09T14:15:30.609Z,31.30
2018-08-09T14:18:06.198Z,31.30
2018-08-09T14:20:48.082Z,31.10
2018-08-09T14:23:23.664Z,31.20
2018-08-09T14:25:59.151Z,31.10
2018-08-09T14:28:34.873Z,31.20
2018-08-09T14:31:10.523Z,31.10
2018-08-09T14:33:46.144Z,31.00
2018-08-09T14:36:21.616Z,30.80
2018-08-09T14:38:57.540Z,30.90
2018-08-09T14:41:32.952Z,30.90
2018-08-09T14:44:08.841Z,30.90
2018-08-09T14:46:44.123Z,31.00
2018-08-09T14:49:21.064Z,31.00
2018-08-09T14:51:56.544Z,30.80
2018-08-09T14:54:32.262Z,30.90
2018-08-09T14:57:07.734Z,31.00
2018-08-09T14:59:43.395Z,30.80
2018-08-09T15:02:19.293Z,30.60
2018-08-09T15:04:54.872Z,30.70
2018-08-09T15:07:30.388Z,30.70
2018-08-09T15:10:06.704Z,30.80
2018-08-09T15:12:42.050Z,31.00
2018-08-09T15:15:17.701Z,30.90
2018-08-09T15:17:53.217Z,30.90
2018-08-09T15:20:28.612Z,31.00
2018-08-09T15:23:04.116Z,30.80
2018-08-09T15:25:39.490Z,30.60
2018-08-09T15:28:15.016Z,30.60
2018-08-09T15:30:50.607Z,30.50
2018-08-09T15:33:26.311Z,30.50
2018-08-09T15:36:01.770Z,30.50
2018-08-09T15:38:37.185Z,30.40
2018-08-09T15:41:12.492Z,30.40
2018-08-09T15:43:48.080Z,30.40
2018-08-09T15:46:23.501Z,30.40
2018-08-09T15:48:59.249Z,30.40
2018-08-09T15:51:34.664Z,30.30
2018-08-09T15:54:10.575Z,30.30
2018-08-09T15:56:46.053Z,30.30
2018-08-09T15:59:21.673Z,30.30
2018-08-09T16:01:57.033Z,30.30
2018-08-09T16:04:33.539Z,30.30
2018-08-09T16:07:08.848Z,30.30
2018-08-09T16:09:44.413Z,30.30
2018-08-09T16:12:22.961Z,30.30
2018-08-09T16:14:58.740Z,30.20
2018-08-09T16:17:34.433Z,30.10
2018-08-09T16:20:11.073Z,30.10
2018-08-09T16:22:47.005Z,30.10
2018-08-09T16:25:22.581Z,30.10
2018-08-09T16:27:57.865Z,30.00
2018-08-09T16:30:33.590Z,30.00
2018-08-09T16:33:09.054Z,30.00
2018-08-09T16:35:44.483Z,30.10
2018-08-09T16:38:19.902Z,30.10
2018-08-09T16:40:55.665Z,30.10
2018-08-09T16:43:31.147Z,30.00
2018-08-09T16:46:07.078Z,30.00
2018-08-09T16:48:42.347Z,29.90
2018-08-09T16:51:18.117Z,29.80
2018-08-09T16:53:53.514Z,29.70
2018-08-09T16:56:29.050Z,29.70
2018-08-09T16:59:04.460Z,29.70
2018-08-09T17:01:40.567Z,29.60
2018-08-09T17:04:16.305Z,29.60
2018-08-09T17:06:52.057Z,29.60
2018-08-09T17:09:27.548Z,29.50
2018-08-09T17:12:03.364Z,29.40
2018-08-09T17:14:38.905Z,29.40
2018-08-09T17:17:14.868Z,29.40
2018-08-09T17:19:50.101Z,29.00
2018-08-09T17:22:26.054Z,27.00
2018-08-09T17:25:02.042Z,23.70
2018-08-09T17:27:38.184Z,22.30
2018-08-09T17:30:15.760Z,21.70
2018-08-09T17:32:51.360Z,21.60
2018-08-09T17:35:26.974Z,21.40
2018-08-09T17:38:02.944Z,21.30
2018-08-09T17:40:38.207Z,21.30
2018-08-09T17:43:13.985Z,21.30
2018-08-09T17:45:49.225Z,21.40
2018-08-09T17:48:25.753Z,21.40
2018-08-09T17:51:02.765Z,21.50
2018-08-09T17:53:38.545Z,21.50
2018-08-09T17:56:13.909Z,21.60
2018-08-09T17:58:49.406Z,21.60
2018-08-09T18:01:24.697Z,21.60
2018-08-09T18:04:00.363Z,21.70
2018-08-09T18:06:35.744Z,21.70
2018-08-09T18:09:11.916Z,21.80
2018-08-09T18:11:47.403Z,21.90
2018-08-09T18:14:22.949Z,21.90
2018-08-09T18:16:58.452Z,22.00
2018-08-09T18:19:34.131Z,22.00
2018-08-09T18:22:10.822Z,22.00
2018-08-09T18:24:46.437Z,22.00
2018-08-09T18:27:21.861Z,22.00
2018-08-09T18:29:57.688Z,22.00
2018-08-09T18:32:33.317Z,22.00
2018-08-09T18:35:10.593Z,22.10
2018-08-09T18:37:46.206Z,22.10
2018-08-09T18:40:24.491Z,22.10
2018-08-09T18:43:00.041Z,22.00
2018-08-09T18:45:35.970Z,22.00
2018-08-09T18:48:11.471Z,22.00
2018-08-09T18:50:47.100Z,22.10
2018-08-09T18:53:22.814Z,22.00
2018-08-09T18:55:58.353Z,22.00
2018-08-09T18:58:35.189Z,22.00
2018-08-09T19:01:11.103Z,22.00
2018-08-09T19:03:47.971Z,22.00
2018-08-09T19:06:23.633Z,21.90
2018-08-09T19:08:59.795Z,21.90
2018-08-09T19:11:35.749Z,21.90
2018-08-09T19:14:11.494Z,21.90
2018-08-09T19:16:47.328Z,21.90
2018-08-09T19:19:23.161Z,21.80
2018-08-09T19:21:59.072Z,21.70
2018-08-09T19:24:34.472Z,21.50
2018-08-09T19:27:11.295Z,21.40
2018-08-09T19:29:47.660Z,21.30
2018-08-09T19:32:23.612Z,21.30
2018-08-09T19:34:59.460Z,21.30
2018-08-09T19:37:36.278Z,21.30
2018-08-09T19:40:15.191Z,21.20
2018-08-09T19:42:51.330Z,21.20
2018-08-09T19:45:28.045Z,21.10
2018-08-09T19:48:03.639Z,21.10
2018-08-09T19:50:38.718Z,21.20
2018-08-09T19:53:14.352Z,21.10
2018-08-09T19:55:50.713Z,21.10
2018-08-09T19:58:26.269Z,21.10
2018-08-09T20:01:01.917Z,21.00
2018-08-09T20:03:37.903Z,21.00
2018-08-09T20:06:13.422Z,21.00
2018-08-09T20:08:49.168Z,21.00
2018-08-09T20:11:24.622Z,20.90
2018-08-09T20:14:00.389Z,20.90
2018-08-09T20:16:35.787Z,21.00
2018-08-09T20:19:11.572Z,21.00
2018-08-09T20:21:47.140Z,21.00
2018-08-09T20:24:22.775Z,21.00
2018-08-09T20:26:58.149Z,21.00
2018-08-09T20:29:33.976Z,21.00
2018-08-09T20:32:10.227Z,20.90
2018-08-09T20:34:46.306Z,20.90
2018-08-09T20:37:21.666Z,20.80
2018-08-09T20:39:57.188Z,20.80
2018-08-09T20:42:32.564Z,20.70
2018-08-09T20:45:10.704Z,20.70
2018-08-09T20:47:46.501Z,20.70
2018-08-09T20:50:24.485Z,20.60
2018-08-09T20:52:59.984Z,20.60
2018-08-09T20:55:36.029Z,20.60
2018-08-09T20:58:11.422Z,20.60
2018-08-09T21:00:47.014Z,20.60
2018-08-09T21:03:22.450Z,20.60
2018-08-09T21:05:58.081Z,20.70
2018-08-09T21:08:33.596Z,20.60
2018-08-09T21:11:09.378Z,20.60
2018-08-09T21:13:44.870Z,20.60
2018-08-09T21:16:20.585Z,20.60
2018-08-09T21:18:56.168Z,20.50
2018-08-09T21:21:31.803Z,20.50
2018-08-09T21:24:07.180Z,20.50
2018-08-09T21:26:42.665Z,20.50
2018-08-09T21:29:18.108Z,20.50
2018-08-09T21:31:53.908Z,20.50
2018-08-09T21:34:29.433Z,20.50
2018-08-09T21:37:04.849Z,20.50
2018-08-09T21:39:40.317Z,20.50
2018-08-09T21:42:15.850Z,20.40
2018-08-09T21:44:51.332Z,20.50
2018-08-09T21:47:27.276Z,20.50
2018-08-09T21:50:02.624Z,20.40
2018-08-09T21:52:38.441Z,20.50
2018-08-09T21:55:14.385Z,20.50
2018-08-09T21:57:49.878Z,20.50
2018-08-09T22:01:03.439Z,20.50
2018-08-09T22:03:45.597Z,20.50
2018-08-09T22:06:26.326Z,20.40
2018-08-09T22:09:07.346Z,20.40
2018-08-09T22:11:47.969Z,20.40
2018-08-09T22:14:28.941Z,20.40
2018-08-09T22:17:09.685Z,20.40
2018-08-09T22:19:50.704Z,20.40
2018-08-09T22:22:27.185Z,20.30
2018-08-09T22:25:02.745Z,20.30
2018-08-09T22:27:38.169Z,20.30
2018-08-09T22:30:16.333Z,20.30
2018-08-09T22:32:51.773Z,20.30
2018-08-09T22:35:27.492Z,20.40
2018-08-09T22:38:02.844Z,20.50
2018-08-09T22:40:38.476Z,20.50
2018-08-09T22:43:13.864Z,20.60
2018-08-09T22:45:49.369Z,20.60
2018-08-09T22:48:24.540Z,20.50
2018-08-09T22:51:00.169Z,20.50
2018-08-09T22:53:35.592Z,20.50
2018-08-09T22:56:11.053Z,20.60
2018-08-09T22:58:46.345Z,20.70
2018-08-09T23:01:22.153Z,20.70
2018-08-09T23:03:57.712Z,20.70
2018-08-09T23:06:33.237Z,20.80
2018-08-09T23:09:10.608Z,20.80
2018-08-09T23:11:46.187Z,20.80
2018-08-09T23:14:21.432Z,20.70
2018-08-09T23:16:57.074Z,20.70
2018-08-09T23:19:32.380Z,20.80
2018-08-09T23:22:07.964Z,20.80
2018-08-09T23:24:43.289Z,20.70
2018-08-09T23:27:18.956Z,20.60
2018-08-09T23:29:54.136Z,20.50
2018-08-09T23:32:29.759Z,20.50
2018-08-09T23:35:07.125Z,20.40
2018-08-09T23:37:42.872Z,20.40
2018-08-09T23:40:18.156Z,20.30
2018-08-09T23:42:53.772Z,20.20
2018-08-09T23:45:29.240Z,20.20
2018-08-09T23:48:04.885Z,20.20
2018-08-09T23:50:40.184Z,20.10
2018-08-09T23:53:15.766Z,20.00
2018-08-09T23:55:50.940Z,20.00
2018-08-09T23:58:26.554Z,20.00
